sensor_id;sensor_type;location;lat;lon;timestamp;pressure;altitude;pressure_sealevel;temperature;humidity
57412;BME280;43247;52.828;-8.980;2023-02-16T00:00:48;101180.11;;;9.95;88.07
57412;BME280;43247;52.828;-8.980;2023-02-16T00:01:47;101178.83;;;9.96;88.06
57412;BME280;43247;52.828;-8.980;2023-02-16T00:02:47;101182.64;;;9.98;88.01
57412;BME280;43247;52.828;-8.980;2023-02-16T00:03:48;101183.13;;;9.98;88.01
57412;BME280;43247;52.828;-8.980;2023-02-16T00:04:47;101183.17;;;9.98;88.04
57412;BME280;43247;52.828;-8.980;2023-02-16T00:05:48;101185.80;;;9.98;88.06
57412;BME280;43247;52.828;-8.980;2023-02-16T00:06:49;101183.83;;;9.98;88.07
57412;BME280;43247;52.828;-8.980;2023-02-16T00:07:48;101188.00;;;9.98;88.08
57412;BME280;43247;52.828;-8.980;2023-02-16T00:08:50;101190.51;;;9.97;88.10
57412;BME280;43247;52.828;-8.980;2023-02-16T00:09:48;101189.61;;;9.97;88.11
57412;BME280;43247;52.828;-8.980;2023-02-16T00:10:49;101187.15;;;9.98;88.11
57412;BME280;43247;52.828;-8.980;2023-02-16T00:11:50;101189.83;;;9.98;88.11
57412;BME280;43247;52.828;-8.980;2023-02-16T00:12:49;101189.64;;;9.98;88.13
57412;BME280;43247;52.828;-8.980;2023-02-16T00:13:49;101190.04;;;9.98;88.16
57412;BME280;43247;52.828;-8.980;2023-02-16T00:14:49;101192.29;;;9.98;88.17
57412;BME280;43247;52.828;-8.980;2023-02-16T00:15:49;101189.15;;;9.98;88.17
57412;BME280;43247;52.828;-8.980;2023-02-16T00:16:50;101187.78;;;9.99;88.19
57412;BME280;43247;52.828;-8.980;2023-02-16T00:17:50;101189.71;;;9.99;88.20
57412;BME280;43247;52.828;-8.980;2023-02-16T00:18:51;101186.34;;;9.99;88.20
57412;BME280;43247;52.828;-8.980;2023-02-16T00:19:50;101183.04;;;9.99;88.20
57412;BME280;43247;52.828;-8.980;2023-02-16T00:20:50;101184.92;;;9.99;88.21
57412;BME280;43247;52.828;-8.980;2023-02-16T00:21:53;101183.76;;;10.00;88.20
57412;BME280;43247;52.828;-8.980;2023-02-16T00:22:51;101187.40;;;10.00;88.20
57412;BME280;43247;52.828;-8.980;2023-02-16T00:23:51;101190.82;;;10.00;88.22
57412;BME280;43247;52.828;-8.980;2023-02-16T00:24:51;101191.36;;;10.00;88.24
57412;BME280;43247;52.828;-8.980;2023-02-16T00:25:51;101195.48;;;10.01;88.23
57412;BME280;43247;52.828;-8.980;2023-02-16T00:26:52;101192.26;;;10.01;88.24
57412;BME280;43247;52.828;-8.980;2023-02-16T00:27:52;101191.97;;;10.01;88.24
57412;BME280;43247;52.828;-8.980;2023-02-16T00:28:55;101189.63;;;10.02;88.26
57412;BME280;43247;52.828;-8.980;2023-02-16T00:29:52;101186.88;;;10.02;88.27
57412;BME280;43247;52.828;-8.980;2023-02-16T00:30:52;101189.34;;;10.02;88.29
57412;BME280;43247;52.828;-8.980;2023-02-16T00:31:54;101189.18;;;10.03;88.28
57412;BME280;43247;52.828;-8.980;2023-02-16T00:32:52;101190.48;;;10.04;88.25
57412;BME280;43247;52.828;-8.980;2023-02-16T00:33:53;101191.33;;;10.04;88.25
57412;BME280;43247;52.828;-8.980;2023-02-16T00:34:53;101189.31;;;10.04;88.28
57412;BME280;43247;52.828;-8.980;2023-02-16T00:35:53;101193.67;;;10.05;88.29
57412;BME280;43247;52.828;-8.980;2023-02-16T00:36:54;101194.32;;;10.06;88.31
57412;BME280;43247;52.828;-8.980;2023-02-16T00:37:53;101198.55;;;10.06;88.33
57412;BME280;43247;52.828;-8.980;2023-02-16T00:38:53;101196.62;;;10.06;88.33
57412;BME280;43247;52.828;-8.980;2023-02-16T00:39:54;101196.90;;;10.07;88.33
57412;BME280;43247;52.828;-8.980;2023-02-16T00:40:54;101197.95;;;10.08;88.38
57412;BME280;43247;52.828;-8.980;2023-02-16T00:41:56;101197.64;;;10.08;88.36
57412;BME280;43247;52.828;-8.980;2023-02-16T00:42:54;101195.20;;;10.09;88.37
57412;BME280;43247;52.828;-8.980;2023-02-16T00:43:54;101200.85;;;10.09;88.38
57412;BME280;43247;52.828;-8.980;2023-02-16T00:44:56;101201.09;;;10.09;88.40
57412;BME280;43247;52.828;-8.980;2023-02-16T00:45:55;101201.86;;;10.10;88.42
57412;BME280;43247;52.828;-8.980;2023-02-16T00:46:55;101202.11;;;10.10;88.41
57412;BME280;43247;52.828;-8.980;2023-02-16T00:47:55;101202.76;;;10.11;88.45
57412;BME280;43247;52.828;-8.980;2023-02-16T00:48:55;101200.16;;;10.12;88.48
57412;BME280;43247;52.828;-8.980;2023-02-16T00:49:56;101203.66;;;10.13;88.48
57412;BME280;43247;52.828;-8.980;2023-02-16T00:50:56;101199.15;;;10.14;88.53
57412;BME280;43247;52.828;-8.980;2023-02-16T00:51:56;101199.95;;;10.15;88.52
57412;BME280;43247;52.828;-8.980;2023-02-16T00:52:57;101199.57;;;10.17;88.55
57412;BME280;43247;52.828;-8.980;2023-02-16T00:53:56;101204.37;;;10.18;88.57
57412;BME280;43247;52.828;-8.980;2023-02-16T00:54:57;101204.24;;;10.18;88.59
57412;BME280;43247;52.828;-8.980;2023-02-16T00:55:57;101206.74;;;10.19;88.62
57412;BME280;43247;52.828;-8.980;2023-02-16T00:56:57;101207.16;;;10.19;88.62
57412;BME280;43247;52.828;-8.980;2023-02-16T00:58:03;101209.52;;;10.20;88.64
57412;BME280;43247;52.828;-8.980;2023-02-16T00:58:58;101209.17;;;10.21;88.66
57412;BME280;43247;52.828;-8.980;2023-02-16T01:00:00;101208.97;;;10.22;88.66
57412;BME280;43247;52.828;-8.980;2023-02-16T01:01:02;101207.92;;;10.23;88.66
57412;BME280;43247;52.828;-8.980;2023-02-16T01:01:58;101208.45;;;10.24;88.66
57412;BME280;43247;52.828;-8.980;2023-02-16T01:03:00;101209.59;;;10.24;88.69
57412;BME280;43247;52.828;-8.980;2023-02-16T01:04:01;101210.37;;;10.26;88.66
57412;BME280;43247;52.828;-8.980;2023-02-16T01:04:58;101215.74;;;10.26;88.70
57412;BME280;43247;52.828;-8.980;2023-02-16T01:05:58;101214.08;;;10.27;88.70
57412;BME280;43247;52.828;-8.980;2023-02-16T01:06:59;101215.82;;;10.27;88.71
57412;BME280;43247;52.828;-8.980;2023-02-16T01:07:59;101216.23;;;10.28;88.70
57412;BME280;43247;52.828;-8.980;2023-02-16T01:09:08;101218.11;;;10.29;88.70
57412;BME280;43247;52.828;-8.980;2023-02-16T01:09:59;101217.18;;;10.30;88.74
57412;BME280;43247;52.828;-8.980;2023-02-16T01:11:01;101218.15;;;10.30;88.71
57412;BME280;43247;52.828;-8.980;2023-02-16T01:12:00;101215.33;;;10.31;88.73
57412;BME280;43247;52.828;-8.980;2023-02-16T01:13:00;101209.34;;;10.31;88.74
57412;BME280;43247;52.828;-8.980;2023-02-16T01:14:00;101210.88;;;10.32;88.83
57412;BME280;43247;52.828;-8.980;2023-02-16T01:15:00;101206.96;;;10.33;88.85
57412;BME280;43247;52.828;-8.980;2023-02-16T01:16:00;101207.78;;;10.33;88.84
57412;BME280;43247;52.828;-8.980;2023-02-16T01:17:00;101208.70;;;10.33;88.80
57412;BME280;43247;52.828;-8.980;2023-02-16T01:18:01;101212.53;;;10.33;88.78
57412;BME280;43247;52.828;-8.980;2023-02-16T01:19:01;101211.80;;;10.34;88.77
57412;BME280;43247;52.828;-8.980;2023-02-16T01:20:01;101212.20;;;10.35;88.80
57412;BME280;43247;52.828;-8.980;2023-02-16T01:21:01;101208.94;;;10.35;88.81
57412;BME280;43247;52.828;-8.980;2023-02-16T01:22:01;101207.87;;;10.36;88.81
57412;BME280;43247;52.828;-8.980;2023-02-16T01:23:02;101205.87;;;10.36;88.81
57412;BME280;43247;52.828;-8.980;2023-02-16T01:24:02;101203.27;;;10.36;88.79
57412;BME280;43247;52.828;-8.980;2023-02-16T01:25:02;101205.75;;;10.36;88.83
57412;BME280;43247;52.828;-8.980;2023-02-16T01:26:02;101201.39;;;10.37;88.84
57412;BME280;43247;52.828;-8.980;2023-02-16T01:27:02;101200.93;;;10.37;88.82
57412;BME280;43247;52.828;-8.980;2023-02-16T01:28:08;101198.38;;;10.37;88.81
57412;BME280;43247;52.828;-8.980;2023-02-16T01:29:03;101195.74;;;10.37;88.77
57412;BME280;43247;52.828;-8.980;2023-02-16T01:30:05;101197.90;;;10.37;88.79
57412;BME280;43247;52.828;-8.980;2023-02-16T01:31:04;101196.80;;;10.37;88.76
57412;BME280;43247;52.828;-8.980;2023-02-16T01:32:04;101198.46;;;10.38;88.77
57412;BME280;43247;52.828;-8.980;2023-02-16T01:33:04;101202.27;;;10.38;88.79
57412;BME280;43247;52.828;-8.980;2023-02-16T01:34:04;101201.30;;;10.38;88.78
57412;BME280;43247;52.828;-8.980;2023-02-16T01:35:05;101200.73;;;10.39;88.73
57412;BME280;43247;52.828;-8.980;2023-02-16T01:36:08;101198.87;;;10.39;88.72
57412;BME280;43247;52.828;-8.980;2023-02-16T01:37:05;101197.67;;;10.39;88.72
57412;BME280;43247;52.828;-8.980;2023-02-16T01:38:05;101196.76;;;10.39;88.72
57412;BME280;43247;52.828;-8.980;2023-02-16T01:39:06;101192.23;;;10.39;88.71
57412;BME280;43247;52.828;-8.980;2023-02-16T01:40:09;101193.14;;;10.39;88.71
57412;BME280;43247;52.828;-8.980;2023-02-16T01:41:12;101191.32;;;10.39;88.72
57412;BME280;43247;52.828;-8.980;2023-02-16T01:42:13;101187.80;;;10.39;88.71
57412;BME280;43247;52.828;-8.980;2023-02-16T01:43:11;101185.25;;;10.39;88.76
57412;BME280;43247;52.828;-8.980;2023-02-16T01:44:11;101183.15;;;10.39;88.79
57412;BME280;43247;52.828;-8.980;2023-02-16T01:45:12;101182.28;;;10.40;88.76
57412;BME280;43247;52.828;-8.980;2023-02-16T01:46:10;101182.48;;;10.40;88.73
57412;BME280;43247;52.828;-8.980;2023-02-16T01:47:15;101182.86;;;10.40;88.73
57412;BME280;43247;52.828;-8.980;2023-02-16T01:48:14;101185.64;;;10.40;88.70
57412;BME280;43247;52.828;-8.980;2023-02-16T01:49:11;101187.72;;;10.39;88.73
57412;BME280;43247;52.828;-8.980;2023-02-16T01:50:14;101188.42;;;10.40;88.95
57412;BME280;43247;52.828;-8.980;2023-02-16T01:51:15;101187.76;;;10.40;89.07
57412;BME280;43247;52.828;-8.980;2023-02-16T01:52:13;101187.85;;;10.41;89.05
57412;BME280;43247;52.828;-8.980;2023-02-16T01:53:15;101184.77;;;10.40;88.95
57412;BME280;43247;52.828;-8.980;2023-02-16T01:54:14;101184.75;;;10.41;88.94
57412;BME280;43247;52.828;-8.980;2023-02-16T01:55:15;101185.16;;;10.40;88.96
57412;BME280;43247;52.828;-8.980;2023-02-16T01:56:14;101190.00;;;10.41;89.05
57412;BME280;43247;52.828;-8.980;2023-02-16T01:57:20;101191.13;;;10.41;89.03
57412;BME280;43247;52.828;-8.980;2023-02-16T01:58:15;101191.09;;;10.41;88.98
57412;BME280;43247;52.828;-8.980;2023-02-16T01:59:15;101194.82;;;10.41;88.92
57412;BME280;43247;52.828;-8.980;2023-02-16T02:00:16;101200.39;;;10.42;88.93
57412;BME280;43247;52.828;-8.980;2023-02-16T02:02:13;101205.74;;;10.42;88.86
57412;BME280;43247;52.828;-8.980;2023-02-16T02:03:12;101208.56;;;10.43;88.93
57412;BME280;43247;52.828;-8.980;2023-02-16T02:04:15;101210.68;;;10.43;89.02
57412;BME280;43247;52.828;-8.980;2023-02-16T02:05:21;101212.51;;;10.43;89.02
57412;BME280;43247;52.828;-8.980;2023-02-16T02:06:12;101214.00;;;10.43;88.98
57412;BME280;43247;52.828;-8.980;2023-02-16T02:07:16;101215.81;;;10.43;88.97
57412;BME280;43247;52.828;-8.980;2023-02-16T02:08:19;101216.84;;;10.43;89.09
57412;BME280;43247;52.828;-8.980;2023-02-16T02:09:14;101214.17;;;10.43;88.98
57412;BME280;43247;52.828;-8.980;2023-02-16T02:10:15;101215.45;;;10.43;88.86
57412;BME280;43247;52.828;-8.980;2023-02-16T02:11:15;101215.08;;;10.42;88.94
57412;BME280;43247;52.828;-8.980;2023-02-16T02:12:17;101214.21;;;10.41;88.92
57412;BME280;43247;52.828;-8.980;2023-02-16T02:13:16;101217.50;;;10.41;88.96
57412;BME280;43247;52.828;-8.980;2023-02-16T02:14:14;101220.63;;;10.40;89.02
57412;BME280;43247;52.828;-8.980;2023-02-16T02:15:12;101225.91;;;10.40;89.05
57412;BME280;43247;52.828;-8.980;2023-02-16T02:16:16;101223.67;;;10.40;89.01
57412;BME280;43247;52.828;-8.980;2023-02-16T02:17:15;101225.52;;;10.41;88.99
57412;BME280;43247;52.828;-8.980;2023-02-16T02:18:12;101222.95;;;10.41;89.02
57412;BME280;43247;52.828;-8.980;2023-02-16T02:19:12;101223.53;;;10.41;89.05
57412;BME280;43247;52.828;-8.980;2023-02-16T02:20:17;101218.03;;;10.40;89.10
57412;BME280;43247;52.828;-8.980;2023-02-16T02:21:24;101219.38;;;10.41;89.09
57412;BME280;43247;52.828;-8.980;2023-02-16T02:22:31;101220.28;;;10.41;89.11
57412;BME280;43247;52.828;-8.980;2023-02-16T02:23:21;101222.56;;;10.41;89.16
57412;BME280;43247;52.828;-8.980;2023-02-16T02:25:28;101224.78;;;10.40;89.12
57412;BME280;43247;52.828;-8.980;2023-02-16T02:27:20;101232.22;;;10.40;89.26
57412;BME280;43247;52.828;-8.980;2023-02-16T02:28:17;101235.73;;;10.40;89.21
57412;BME280;43247;52.828;-8.980;2023-02-16T02:29:26;101239.80;;;10.40;89.16
57412;BME280;43247;52.828;-8.980;2023-02-16T02:30:25;101239.88;;;10.40;89.19
57412;BME280;43247;52.828;-8.980;2023-02-16T02:31:23;101238.77;;;10.40;89.19
57412;BME280;43247;52.828;-8.980;2023-02-16T02:32:21;101240.01;;;10.39;89.22
57412;BME280;43247;52.828;-8.980;2023-02-16T02:33:24;101242.38;;;10.39;89.18
57412;BME280;43247;52.828;-8.980;2023-02-16T02:34:21;101244.16;;;10.39;89.22
57412;BME280;43247;52.828;-8.980;2023-02-16T02:35:25;101246.33;;;10.38;89.22
57412;BME280;43247;52.828;-8.980;2023-02-16T02:36:23;101244.35;;;10.38;89.23
57412;BME280;43247;52.828;-8.980;2023-02-16T02:37:20;101245.87;;;10.38;89.28
57412;BME280;43247;52.828;-8.980;2023-02-16T02:38:23;101243.10;;;10.38;89.39
57412;BME280;43247;52.828;-8.980;2023-02-16T02:39:24;101244.08;;;10.38;89.42
57412;BME280;43247;52.828;-8.980;2023-02-16T02:40:24;101243.09;;;10.37;89.33
57412;BME280;43247;52.828;-8.980;2023-02-16T02:41:21;101245.96;;;10.37;89.41
57412;BME280;43247;52.828;-8.980;2023-02-16T02:42:20;101248.77;;;10.36;89.33
57412;BME280;43247;52.828;-8.980;2023-02-16T02:43:20;101251.44;;;10.37;89.50
57412;BME280;43247;52.828;-8.980;2023-02-16T02:44:20;101255.78;;;10.37;89.70
57412;BME280;43247;52.828;-8.980;2023-02-16T02:45:22;101257.64;;;10.38;89.70
57412;BME280;43247;52.828;-8.980;2023-02-16T02:46:22;101256.00;;;10.38;89.75
57412;BME280;43247;52.828;-8.980;2023-02-16T02:47:17;101258.17;;;10.38;89.71
57412;BME280;43247;52.828;-8.980;2023-02-16T02:48:18;101258.13;;;10.38;89.76
57412;BME280;43247;52.828;-8.980;2023-02-16T02:49:18;101257.09;;;10.37;89.97
57412;BME280;43247;52.828;-8.980;2023-02-16T02:50:30;101258.48;;;10.37;90.02
57412;BME280;43247;52.828;-8.980;2023-02-16T02:51:18;101258.92;;;10.36;90.16
57412;BME280;43247;52.828;-8.980;2023-02-16T02:52:18;101257.98;;;10.37;90.16
57412;BME280;43247;52.828;-8.980;2023-02-16T02:53:19;101255.42;;;10.37;90.10
57412;BME280;43247;52.828;-8.980;2023-02-16T02:54:21;101249.72;;;10.37;90.05
57412;BME280;43247;52.828;-8.980;2023-02-16T02:55:19;101241.12;;;10.37;90.02
57412;BME280;43247;52.828;-8.980;2023-02-16T02:56:19;101237.87;;;10.38;90.02
57412;BME280;43247;52.828;-8.980;2023-02-16T02:57:23;101237.27;;;10.38;90.02
57412;BME280;43247;52.828;-8.980;2023-02-16T02:58:21;101242.95;;;10.38;89.96
57412;BME280;43247;52.828;-8.980;2023-02-16T02:59:20;101245.10;;;10.38;90.04
57412;BME280;43247;52.828;-8.980;2023-02-16T03:00:23;101244.06;;;10.38;90.05
57412;BME280;43247;52.828;-8.980;2023-02-16T03:01:21;101242.62;;;10.39;90.04
57412;BME280;43247;52.828;-8.980;2023-02-16T03:02:21;101241.96;;;10.39;90.07
57412;BME280;43247;52.828;-8.980;2023-02-16T03:03:23;101242.84;;;10.41;90.08
57412;BME280;43247;52.828;-8.980;2023-02-16T03:04:23;101246.39;;;10.41;90.12
57412;BME280;43247;52.828;-8.980;2023-02-16T03:05:22;101247.80;;;10.41;90.19
57412;BME280;43247;52.828;-8.980;2023-02-16T03:06:24;101250.81;;;10.40;90.25
57412;BME280;43247;52.828;-8.980;2023-02-16T03:07:22;101253.15;;;10.40;90.21
57412;BME280;43247;52.828;-8.980;2023-02-16T03:08:24;101252.36;;;10.40;90.36
57412;BME280;43247;52.828;-8.980;2023-02-16T03:09:21;101252.06;;;10.39;90.35
57412;BME280;43247;52.828;-8.980;2023-02-16T03:10:25;101255.55;;;10.40;90.36
57412;BME280;43247;52.828;-8.980;2023-02-16T03:11:24;101252.55;;;10.40;90.32
57412;BME280;43247;52.828;-8.980;2023-02-16T03:12:22;101255.85;;;10.41;90.29
57412;BME280;43247;52.828;-8.980;2023-02-16T03:13:24;101255.93;;;10.41;90.28
57412;BME280;43247;52.828;-8.980;2023-02-16T03:14:25;101260.81;;;10.41;90.30
57412;BME280;43247;52.828;-8.980;2023-02-16T03:15:24;101260.12;;;10.41;90.33
57412;BME280;43247;52.828;-8.980;2023-02-16T03:16:25;101262.95;;;10.40;90.36
57412;BME280;43247;52.828;-8.980;2023-02-16T03:17:30;101262.73;;;10.40;90.34
57412;BME280;43247;52.828;-8.980;2023-02-16T03:18:24;101259.62;;;10.40;90.34
57412;BME280;43247;52.828;-8.980;2023-02-16T03:19:23;101257.57;;;10.39;90.25
57412;BME280;43247;52.828;-8.980;2023-02-16T03:20:23;101260.16;;;10.39;90.29
57412;BME280;43247;52.828;-8.980;2023-02-16T03:21:24;101259.38;;;10.39;90.30
57412;BME280;43247;52.828;-8.980;2023-02-16T03:22:24;101260.52;;;10.39;90.24
57412;BME280;43247;52.828;-8.980;2023-02-16T03:23:24;101262.77;;;10.39;90.17
57412;BME280;43247;52.828;-8.980;2023-02-16T03:24:27;101266.12;;;10.38;90.19
57412;BME280;43247;52.828;-8.980;2023-02-16T03:25:27;101266.63;;;10.38;90.22
57412;BME280;43247;52.828;-8.980;2023-02-16T03:26:25;101267.71;;;10.37;90.21
57412;BME280;43247;52.828;-8.980;2023-02-16T03:27:28;101268.82;;;10.37;90.17
57412;BME280;43247;52.828;-8.980;2023-02-16T03:28:27;101266.55;;;10.37;90.11
57412;BME280;43247;52.828;-8.980;2023-02-16T03:29:26;101266.60;;;10.37;90.17
57412;BME280;43247;52.828;-8.980;2023-02-16T03:30:26;101269.22;;;10.36;90.11
57412;BME280;43247;52.828;-8.980;2023-02-16T03:31:29;101271.80;;;10.36;90.10
57412;BME280;43247;52.828;-8.980;2023-02-16T03:32:26;101276.50;;;10.37;90.10
57412;BME280;43247;52.828;-8.980;2023-02-16T03:33:27;101281.77;;;10.37;90.03
57412;BME280;43247;52.828;-8.980;2023-02-16T03:34:27;101289.05;;;10.37;90.02
57412;BME280;43247;52.828;-8.980;2023-02-16T03:35:26;101291.99;;;10.36;90.01
57412;BME280;43247;52.828;-8.980;2023-02-16T03:36:29;101296.92;;;10.36;90.08
57412;BME280;43247;52.828;-8.980;2023-02-16T03:37:26;101299.62;;;10.35;90.08
57412;BME280;43247;52.828;-8.980;2023-02-16T03:38:27;101303.40;;;10.35;90.06
57412;BME280;43247;52.828;-8.980;2023-02-16T03:39:28;101308.75;;;10.35;90.07
57412;BME280;43247;52.828;-8.980;2023-02-16T03:40:27;101308.03;;;10.35;90.02
57412;BME280;43247;52.828;-8.980;2023-02-16T03:41:31;101311.44;;;10.35;89.98
57412;BME280;43247;52.828;-8.980;2023-02-16T03:42:27;101316.19;;;10.35;90.04
57412;BME280;43247;52.828;-8.980;2023-02-16T03:43:28;101318.64;;;10.35;90.01
57412;BME280;43247;52.828;-8.980;2023-02-16T03:44:27;101323.32;;;10.34;90.01
57412;BME280;43247;52.828;-8.980;2023-02-16T03:45:28;101324.48;;;10.34;90.09
57412;BME280;43247;52.828;-8.980;2023-02-16T03:46:28;101325.15;;;10.34;90.10
57412;BME280;43247;52.828;-8.980;2023-02-16T03:47:28;101325.89;;;10.33;90.07
57412;BME280;43247;52.828;-8.980;2023-02-16T03:48:28;101325.24;;;10.34;90.08
57412;BME280;43247;52.828;-8.980;2023-02-16T03:49:28;101328.74;;;10.33;90.10
57412;BME280;43247;52.828;-8.980;2023-02-16T03:50:29;101329.65;;;10.33;90.13
57412;BME280;43247;52.828;-8.980;2023-02-16T03:51:29;101333.29;;;10.33;90.10
57412;BME280;43247;52.828;-8.980;2023-02-16T03:52:29;101330.18;;;10.32;90.14
57412;BME280;43247;52.828;-8.980;2023-02-16T03:53:29;101331.59;;;10.31;90.12
57412;BME280;43247;52.828;-8.980;2023-02-16T03:54:29;101335.25;;;10.30;90.20
57412;BME280;43247;52.828;-8.980;2023-02-16T03:55:29;101335.91;;;10.30;90.16
57412;BME280;43247;52.828;-8.980;2023-02-16T03:56:29;101332.53;;;10.29;90.17
57412;BME280;43247;52.828;-8.980;2023-02-16T03:57:30;101335.69;;;10.29;90.12
57412;BME280;43247;52.828;-8.980;2023-02-16T03:58:30;101337.34;;;10.28;90.12
57412;BME280;43247;52.828;-8.980;2023-02-16T03:59:30;101338.53;;;10.27;90.11
57412;BME280;43247;52.828;-8.980;2023-02-16T04:00:31;101340.11;;;10.26;90.15
57412;BME280;43247;52.828;-8.980;2023-02-16T04:01:30;101339.49;;;10.26;90.08
57412;BME280;43247;52.828;-8.980;2023-02-16T04:02:31;101340.31;;;10.25;90.03
57412;BME280;43247;52.828;-8.980;2023-02-16T04:03:31;101339.85;;;10.24;89.84
57412;BME280;43247;52.828;-8.980;2023-02-16T04:04:31;101340.13;;;10.24;89.92
57412;BME280;43247;52.828;-8.980;2023-02-16T04:05:31;101340.49;;;10.21;90.05
57412;BME280;43247;52.828;-8.980;2023-02-16T04:06:31;101342.00;;;10.18;90.08
57412;BME280;43247;52.828;-8.980;2023-02-16T04:07:31;101342.55;;;10.15;90.07
57412;BME280;43247;52.828;-8.980;2023-02-16T04:08:32;101345.85;;;10.13;90.04
57412;BME280;43247;52.828;-8.980;2023-02-16T04:09:32;101344.16;;;10.14;89.88
57412;BME280;43247;52.828;-8.980;2023-02-16T04:10:33;101344.62;;;10.14;89.60
57412;BME280;43247;52.828;-8.980;2023-02-16T04:11:32;101344.70;;;10.14;89.49
57412;BME280;43247;52.828;-8.980;2023-02-16T04:12:32;101342.57;;;10.13;89.47
57412;BME280;43247;52.828;-8.980;2023-02-16T04:13:32;101343.37;;;10.12;89.48
57412;BME280;43247;52.828;-8.980;2023-02-16T04:14:33;101343.02;;;10.10;89.47
57412;BME280;43247;52.828;-8.980;2023-02-16T04:15:33;101344.20;;;10.08;89.48
57412;BME280;43247;52.828;-8.980;2023-02-16T04:16:33;101341.31;;;10.07;89.43
57412;BME280;43247;52.828;-8.980;2023-02-16T04:17:33;101340.54;;;10.06;89.49
57412;BME280;43247;52.828;-8.980;2023-02-16T04:18:33;101340.05;;;10.04;89.48
57412;BME280;43247;52.828;-8.980;2023-02-16T04:19:34;101340.13;;;10.03;89.46
57412;BME280;43247;52.828;-8.980;2023-02-16T04:20:34;101341.93;;;10.02;89.45
57412;BME280;43247;52.828;-8.980;2023-02-16T04:21:34;101340.37;;;10.02;89.45
57412;BME280;43247;52.828;-8.980;2023-02-16T04:22:34;101338.53;;;10.01;89.35
57412;BME280;43247;52.828;-8.980;2023-02-16T04:23:34;101339.90;;;9.99;89.35
57412;BME280;43247;52.828;-8.980;2023-02-16T04:24:34;101337.83;;;9.98;89.31
57412;BME280;43247;52.828;-8.980;2023-02-16T04:25:35;101338.10;;;9.97;89.27
57412;BME280;43247;52.828;-8.980;2023-02-16T04:26:35;101339.69;;;9.96;89.25
57412;BME280;43247;52.828;-8.980;2023-02-16T04:27:36;101335.08;;;9.95;89.23
57412;BME280;43247;52.828;-8.980;2023-02-16T04:28:35;101336.55;;;9.94;89.13
57412;BME280;43247;52.828;-8.980;2023-02-16T04:29:35;101335.90;;;9.93;89.12
57412;BME280;43247;52.828;-8.980;2023-02-16T04:30:35;101335.34;;;9.90;89.16
57412;BME280;43247;52.828;-8.980;2023-02-16T04:31:36;101334.52;;;9.90;89.00
57412;BME280;43247;52.828;-8.980;2023-02-16T04:32:36;101336.24;;;9.90;88.91
57412;BME280;43247;52.828;-8.980;2023-02-16T04:33:36;101334.93;;;9.89;88.88
57412;BME280;43247;52.828;-8.980;2023-02-16T04:34:36;101338.79;;;9.88;88.83
57412;BME280;43247;52.828;-8.980;2023-02-16T04:35:36;101341.87;;;9.87;88.86
57412;BME280;43247;52.828;-8.980;2023-02-16T04:36:37;101344.53;;;9.86;88.87
57412;BME280;43247;52.828;-8.980;2023-02-16T04:37:37;101346.80;;;9.85;88.81
57412;BME280;43247;52.828;-8.980;2023-02-16T04:38:37;101347.95;;;9.84;88.86
57412;BME280;43247;52.828;-8.980;2023-02-16T04:39:37;101347.14;;;9.81;89.02
57412;BME280;43247;52.828;-8.980;2023-02-16T04:40:37;101348.51;;;9.80;89.06
57412;BME280;43247;52.828;-8.980;2023-02-16T04:41:37;101348.25;;;9.79;89.01
57412;BME280;43247;52.828;-8.980;2023-02-16T04:42:38;101348.12;;;9.77;88.90
57412;BME280;43247;52.828;-8.980;2023-02-16T04:43:38;101349.02;;;9.77;88.86
57412;BME280;43247;52.828;-8.980;2023-02-16T04:44:38;101351.21;;;9.75;88.76
57412;BME280;43247;52.828;-8.980;2023-02-16T04:45:38;101352.56;;;9.75;88.72
57412;BME280;43247;52.828;-8.980;2023-02-16T04:46:38;101359.01;;;9.74;88.67
57412;BME280;43247;52.828;-8.980;2023-02-16T04:47:39;101361.30;;;9.73;88.61
57412;BME280;43247;52.828;-8.980;2023-02-16T04:48:39;101365.93;;;9.72;88.63
57412;BME280;43247;52.828;-8.980;2023-02-16T04:49:39;101367.07;;;9.71;88.48
57412;BME280;43247;52.828;-8.980;2023-02-16T04:50:39;101368.76;;;9.71;88.42
57412;BME280;43247;52.828;-8.980;2023-02-16T04:51:39;101365.40;;;9.71;88.36
57412;BME280;43247;52.828;-8.980;2023-02-16T04:52:39;101361.63;;;9.71;88.36
57412;BME280;43247;52.828;-8.980;2023-02-16T04:53:40;101367.71;;;9.70;88.42
57412;BME280;43247;52.828;-8.980;2023-02-16T04:54:40;101370.69;;;9.70;88.42
57412;BME280;43247;52.828;-8.980;2023-02-16T04:55:45;101378.53;;;9.69;88.44
57412;BME280;43247;52.828;-8.980;2023-02-16T04:56:43;101383.49;;;9.69;88.48
57412;BME280;43247;52.828;-8.980;2023-02-16T04:57:40;101386.53;;;9.67;88.51
57412;BME280;43247;52.828;-8.980;2023-02-16T04:58:41;101387.36;;;9.66;88.52
57412;BME280;43247;52.828;-8.980;2023-02-16T04:59:41;101388.62;;;9.66;88.54
57412;BME280;43247;52.828;-8.980;2023-02-16T05:00:41;101389.20;;;9.65;88.60
57412;BME280;43247;52.828;-8.980;2023-02-16T05:01:42;101390.89;;;9.65;88.60
57412;BME280;43247;52.828;-8.980;2023-02-16T05:02:41;101393.81;;;9.64;88.60
57412;BME280;43247;52.828;-8.980;2023-02-16T05:03:41;101393.25;;;9.64;88.57
57412;BME280;43247;52.828;-8.980;2023-02-16T05:04:42;101399.72;;;9.63;88.57
57412;BME280;43247;52.828;-8.980;2023-02-16T05:05:42;101404.50;;;9.63;88.53
57412;BME280;43247;52.828;-8.980;2023-02-16T05:06:42;101410.51;;;9.62;88.53
57412;BME280;43247;52.828;-8.980;2023-02-16T05:07:42;101412.84;;;9.61;88.56
57412;BME280;43247;52.828;-8.980;2023-02-16T05:08:42;101409.38;;;9.61;88.51
57412;BME280;43247;52.828;-8.980;2023-02-16T05:09:43;101403.35;;;9.60;88.47
57412;BME280;43247;52.828;-8.980;2023-02-16T05:10:43;101400.47;;;9.59;88.48
57412;BME280;43247;52.828;-8.980;2023-02-16T05:11:43;101395.96;;;9.59;88.47
57412;BME280;43247;52.828;-8.980;2023-02-16T05:12:43;101398.96;;;9.58;88.46
57412;BME280;43247;52.828;-8.980;2023-02-16T05:13:43;101405.09;;;9.57;88.45
57412;BME280;43247;52.828;-8.980;2023-02-16T05:14:43;101406.64;;;9.57;88.36